Sylvania, Arkansas
Current Conditions -  °F | °C
As of 4:22 AM on Sunday 26 Oct 2014 (Local Time) from KLRF Reporting Station
Moderate Fog Moderate Fog  
Wind Chill: 57°   Ceiling: 100
Heat Index: 57°   Visibility: 0.5mi
Dew Point: 55°   Wind: 0mph
Humidity: 94%   Direction: NA
Pressure: 29.99"   Gusts: NA
Location:  34.9606°N, 91.8764°W
Report Text: KLRF 260922Z AUTO 00000KT 1/2SM R25/2600FT FG VV001 14/13 A2999 RMK AO2
Loading
Personal Weather Stations






























Interactive Weather Map
Tropical Storm Tracking
New forecast layout! Learn more

10-Day Weather Forecast

Advertisements
Track Severe Weather on mobile